MSC Sinfonia — H8XH — position and weather

sailwx.info

Track history (hours):
 
Tides and Currents Weather Stations Pressure Air Temp Water Temp Dewpoint Dewpoint Depression Visibility Wind Speed Wind Dir Waves Ship Positions

MSC Sinfonia

Last reported at 2016-Jun-25 19:33 UTC. Time now 2016-Jun-26 04:44 UTC.
Position N 44°51' E 013°20'.

Length 251 m; draft 6.8 m.

Type: Passenger vessel. MMSI: 356715971.

Date/timePositionNaut miles runAvg speedWind from/ knotsBaromVisibWave heightAir tempDewpointWater temp
2016-Jun-25 19:33N 44°51' E 013°20'1919.0
2016-Jun-25 18:34N 45°06' E 013°03'1818.2
2016-Jun-25 17:33N 45°19' E 012°44'1616.2
2016-Jun-25 16:33N 45°26' E 012°24'4 3.8
2016-Jun-25 15:33N 45°26' E 012°18'0 0.0
2016-Jun-25 14:33N 45°26' E 012°18'0 0.0
2016-Jun-25 13:33N 45°26' E 012°18'0 0.0
2016-Jun-25 12:33N 45°26' E 012°18'0 0.0
2016-Jun-25 11:30N 45°26' E 012°18'0 0.0
2016-Jun-25 10:33N 45°26' E 012°18'0 0.0
2016-Jun-25 09:33N 45°26' E 012°18'0 0.0
2016-Jun-25 08:33N 45°26' E 012°18'0 0.0
2016-Jun-25 07:33N 45°26' E 012°18'0 0.0
2016-Jun-25 06:33N 45°26' E 012°18'2 1.8
2016-Jun-25 05:34N 45°26' E 012°21'7 7.1
2016-Jun-25 04:34N 45°23' E 012°30'1212.2
2016-Jun-25 03:34N 45°17' E 012°45'1111.2
2016-Jun-25 02:33N 45°07' E 012°54'1111.5
2016-Jun-25 01:34N 44°56' E 012°58'1211.6
2016-Jun-25 00:33N 44°45' E 013°02'1110.7
2016-Jun-24 23:29N 44°34' E 013°07'1010.4
2016-Jun-24 22:33N 44°25' E 013°12'1010.1
2016-Jun-24 21:33N 44°16' E 013°19'1010.5
2016-Jun-24 20:34N 44°09' E 013°30'223 6.3
2016-Jun-23 09:21N 42°31' E 018°05'1417.0
2016-Jun-23 08:33N 42°18' E 018°11'1716.9
2016-Jun-23 07:33N 42°02' E 018°19'25117.4
2016-Jun-22 17:07N 38°09' E 020°19'916.3
2016-Jun-22 16:33N 38°00' E 020°25'3816.1
2016-Jun-22 14:10N 37°29' E 020°52'18913.8
2016-Jun-22 00:31N 37°15' E 024°49'1617.1
2016-Jun-21 23:33N 37°25' E 025°06'1111.3
2016-Jun-21 22:33N 37°28' E 025°19'0 0.0
2016-Jun-21 21:28N 37°28' E 025°19'0 0.0
2016-Jun-21 19:32N 37°28' E 025°19'0 0.0
2016-Jun-21 18:26N 37°28' E 025°19'0 0.0
2016-Jun-21 17:21N 37°28' E 025°19'1 0.6
2016-Jun-21 16:33N 37°28' E 025°19'1110.8
2016-Jun-21 15:33N 37°18' E 025°14'1616.0
2016-Jun-21 14:33N 37°02' E 025°17'85 5.7
2016-Jun-20 23:33N 36°21' E 023°44'18117.6
2016-Jun-20 13:18N 37°53' E 020°29'1419.7
2016-Jun-20 12:34N 38°06' E 020°20'50112.5
2016-Jun-18 20:33N 44°41' E 013°30'2019.6
2016-Jun-18 19:33N 44°57' E 013°14'1918.9
2016-Jun-18 18:33N 45°12' E 012°57'1616.3
2016-Jun-18 17:34N 45°20' E 012°38'1212.1
2016-Jun-18 16:33N 45°25' E 012°22'3 2.9
2016-Jun-18 15:33N 45°26' E 012°18'0 0.0
2016-Jun-18 14:33N 45°26' E 012°18'0 0.0
2016-Jun-18 13:33N 45°26' E 012°18'0 0.0
2016-Jun-18 12:33N 45°26' E 012°18'0 0.0
2016-Jun-18 11:33N 45°26' E 012°18'0 0.0
2016-Jun-18 10:30N 45°26' E 012°18'0 0.0
2016-Jun-18 09:33N 45°26' E 012°18'0 0.0
2016-Jun-18 08:33N 45°26' E 012°18'0 0.0
2016-Jun-18 07:33N 45°26' E 012°18'0 0.0
2016-Jun-18 06:33N 45°26' E 012°18'2 2.1
2016-Jun-18 05:33N 45°26' E 012°21'7 7.3
2016-Jun-18 04:33N 45°23' E 012°31'10 9.6
2016-Jun-18 03:33N 45°18' E 012°42'1111.0
2016-Jun-18 02:33N 45°10' E 012°53'278 6.8
2016-Jun-16 09:33N 42°28' E 018°06'1413.6
2016-Jun-16 08:33N 42°15' E 018°12'1413.6
2016-Jun-16 07:33N 42°02' E 018°18'  
Track history (hours):
 
Tides and Currents Weather Stations Pressure Air Temp Water Temp Dewpoint Dewpoint Depression Visibility Wind Speed Wind Dir Waves Ship Positions

MSC Sinfonia

Last reported at 2016-Jun-25 19:33 UTC. Time now 2016-Jun-26 04:44 UTC.
Position N 44°51' E 013°20'.

Length 251 m; draft 6.8 m.

Type: Passenger vessel. MMSI: 356715971.

Date/timePositionNaut miles runAvg speedWind from/ knotsBaromVisibWave heightAir tempDewpointWater temp
2016-Jun-25 19:33N 44°51' E 013°20'1919.0
2016-Jun-25 18:34N 45°06' E 013°03'1818.2
2016-Jun-25 17:33N 45°19' E 012°44'1616.2
2016-Jun-25 16:33N 45°26' E 012°24'4 3.8
2016-Jun-25 15:33N 45°26' E 012°18'0 0.0
2016-Jun-25 14:33N 45°26' E 012°18'0 0.0
2016-Jun-25 13:33N 45°26' E 012°18'0 0.0
2016-Jun-25 12:33N 45°26' E 012°18'0 0.0
2016-Jun-25 11:30N 45°26' E 012°18'0 0.0
2016-Jun-25 10:33N 45°26' E 012°18'0 0.0
2016-Jun-25 09:33N 45°26' E 012°18'0 0.0
2016-Jun-25 08:33N 45°26' E 012°18'0 0.0
2016-Jun-25 07:33N 45°26' E 012°18'0 0.0
2016-Jun-25 06:33N 45°26' E 012°18'2 1.8
2016-Jun-25 05:34N 45°26' E 012°21'7 7.1
2016-Jun-25 04:34N 45°23' E 012°30'1212.2
2016-Jun-25 03:34N 45°17' E 012°45'1111.2
2016-Jun-25 02:33N 45°07' E 012°54'1111.5
2016-Jun-25 01:34N 44°56' E 012°58'1211.6
2016-Jun-25 00:33N 44°45' E 013°02'1110.7
2016-Jun-24 23:29N 44°34' E 013°07'1010.4
2016-Jun-24 22:33N 44°25' E 013°12'1010.1
2016-Jun-24 21:33N 44°16' E 013°19'1010.5
2016-Jun-24 20:34N 44°09' E 013°30'223 6.3
2016-Jun-23 09:21N 42°31' E 018°05'1417.0
2016-Jun-23 08:33N 42°18' E 018°11'1716.9
2016-Jun-23 07:33N 42°02' E 018°19'25117.4
2016-Jun-22 17:07N 38°09' E 020°19'916.3
2016-Jun-22 16:33N 38°00' E 020°25'3816.1
2016-Jun-22 14:10N 37°29' E 020°52'18913.8
2016-Jun-22 00:31N 37°15' E 024°49'1617.1
2016-Jun-21 23:33N 37°25' E 025°06'1111.3
2016-Jun-21 22:33N 37°28' E 025°19'0 0.0
2016-Jun-21 21:28N 37°28' E 025°19'0 0.0
2016-Jun-21 19:32N 37°28' E 025°19'0 0.0
2016-Jun-21 18:26N 37°28' E 025°19'0 0.0
2016-Jun-21 17:21N 37°28' E 025°19'1 0.6
2016-Jun-21 16:33N 37°28' E 025°19'1110.8
2016-Jun-21 15:33N 37°18' E 025°14'1616.0
2016-Jun-21 14:33N 37°02' E 025°17'85 5.7
2016-Jun-20 23:33N 36°21' E 023°44'18117.6
2016-Jun-20 13:18N 37°53' E 020°29'1419.7
2016-Jun-20 12:34N 38°06' E 020°20'50112.5
2016-Jun-18 20:33N 44°41' E 013°30'2019.6
2016-Jun-18 19:33N 44°57' E 013°14'1918.9
2016-Jun-18 18:33N 45°12' E 012°57'1616.3
2016-Jun-18 17:34N 45°20' E 012°38'1212.1
2016-Jun-18 16:33N 45°25' E 012°22'3 2.9
2016-Jun-18 15:33N 45°26' E 012°18'0 0.0
2016-Jun-18 14:33N 45°26' E 012°18'0 0.0
2016-Jun-18 13:33N 45°26' E 012°18'0 0.0
2016-Jun-18 12:33N 45°26' E 012°18'0 0.0
2016-Jun-18 11:33N 45°26' E 012°18'0 0.0
2016-Jun-18 10:30N 45°26' E 012°18'0 0.0
2016-Jun-18 09:33N 45°26' E 012°18'0 0.0
2016-Jun-18 08:33N 45°26' E 012°18'0 0.0
2016-Jun-18 07:33N 45°26' E 012°18'0 0.0
2016-Jun-18 06:33N 45°26' E 012°18'2 2.1
2016-Jun-18 05:33N 45°26' E 012°21'7 7.3
2016-Jun-18 04:33N 45°23' E 012°31'10 9.6
2016-Jun-18 03:33N 45°18' E 012°42'1111.0
2016-Jun-18 02:33N 45°10' E 012°53'278 6.8
2016-Jun-16 09:33N 42°28' E 018°06'1413.6
2016-Jun-16 08:33N 42°15' E 018°12'1413.6
2016-Jun-16 07:33N 42°02' E 018°18'  

Dump ship's entire track history